Weather History for KMFV - July, 2013

Change the Weather History Date:

Saturday, July 6, 2013

  Actual Average (KWAL) Record (KWAL)
Temperature  
Mean Temperature 86 °F 77 °F  
Max Temperature 93 °F 85 °F 99 °F (2010)
Min Temperature 78 °F 69 °F 55 °F (1979)
Degree Days  
Heating Degree Days 0    
Month to date heating degree days  
Since 1 June heating degree days  
Since 1 July heating degree days  
Cooling Degree Days 20    
Month to date cooling degree days  
Year to date cooling degree days  
Since 1 June cooling degree days  
Growing Degree Days 36 (Base 50)    
Moisture  
Dew Point 73 °F    
Average Humidity 69    
Maximum Humidity 89    
Minimum Humidity 41    
Precipitation  
Precipitation 0.00 in 0.10 in 0.33 in (2001)
Month to date precipitation 0.61  
Year to date precipitation 19.72  
Sea Level Pressure  
Sea Level Pressure 30.19 in    
Wind  
Wind Speed 7 mph (SW)    
Max Wind Speed 13 mph    
Max Gust Speed 18 mph    
Visibility 10 miles    
Events      
T = Trace of Precipitation, MM = Missing Value Source: NWS Daily Summary

Daily Weather History Graph

Daily Weather History Graph

Search for Another Location

Airport or City:

Trip Planner

Search our weather history database for the weather conditions in past years. The results will help you decide how hot, cold, wet, or windy it might be!

Date:

Astronomy

Jul. 06, 2013 Rise Set
Actual Time 5:47 AM EDT 8:27 PM EDT
Civil Twilight 5:16 AM EDT 8:58 PM EDT
Nautical Twilight 4:38 AM EDT 9:36 PM EDT
Astronomical Twilight 3:55 AM EDT 10:20 PM EDT
Moon 4:30 AM EDT (7/6) 7:08 PM EDT (7/6)
Length of Visible Light 15h 41m
Length of Day
14h 39m
Waning Crescent, 2% of the Moon is Illuminated
Jul 6
Waning Crescent
Jul 8
New
Jul 15
First Quarter
Jul 22
Full
Jul 29
Last Quarter

Hourly Weather History & Observations

Time (EDT) Temp. Heat Index Dew Point Humidity Pressure Visibility Wind Dir Wind Speed Gust Speed Precip Events Conditions
12:15 AM 80.6 °F 85.4 °F 73.4 °F 79% 30.23 in 10.0 mi SSW 6.9 mph - N/A   Clear
12:35 AM 80.6 °F 85.4 °F 73.4 °F 79% 30.23 in 10.0 mi SSW 6.9 mph - N/A   Clear
12:55 AM 80.6 °F 85.4 °F 73.4 °F 79% 30.23 in 10.0 mi SSW 6.9 mph - N/A   Clear
1:17 AM 80.6 °F 85.4 °F 73.4 °F 79% 30.22 in 10.0 mi SSW 6.9 mph - N/A   Clear
1:35 AM 80.6 °F 85.4 °F 73.4 °F 79% 30.22 in 7.0 mi SW 5.8 mph - N/A   Clear
1:55 AM 80.6 °F 85.4 °F 73.4 °F 79% 30.22 in 10.0 mi SW 5.8 mph - N/A   Clear
2:16 AM 80.6 °F 85.4 °F 73.4 °F 79% 30.22 in 10.0 mi SW 8.1 mph - N/A   Clear
2:35 AM 80.6 °F 85.4 °F 73.4 °F 79% 30.22 in 10.0 mi SW 8.1 mph - N/A   Clear
2:55 AM 80.6 °F 85.4 °F 73.4 °F 79% 30.21 in 10.0 mi SW 8.1 mph - N/A   Clear
3:16 AM 80.6 °F 85.4 °F 73.4 °F 79% 30.21 in 10.0 mi SW 9.2 mph - N/A   Clear
3:35 AM 80.6 °F 85.4 °F 73.4 °F 79% 30.21 in 10.0 mi SW 8.1 mph - N/A   Clear
3:55 AM 80.6 °F 85.4 °F 73.4 °F 79% 30.21 in 10.0 mi SW 6.9 mph - N/A   Clear
4:15 AM 80.6 °F 85.4 °F 73.4 °F 79% 30.21 in 10.0 mi SW 8.1 mph - N/A   Clear
4:35 AM 80.6 °F 85.4 °F 73.4 °F 79% 30.22 in 10.0 mi SW 5.8 mph - N/A   Clear
4:55 AM 80.6 °F 85.4 °F 73.4 °F 79% 30.22 in 10.0 mi SW 8.1 mph - N/A   Clear
5:15 AM 78.8 °F - 73.4 °F 83% 30.22 in 10.0 mi SW 6.9 mph - N/A   Clear
5:35 AM 78.8 °F - 73.4 °F 83% 30.22 in 10.0 mi SW 6.9 mph - N/A   Clear
5:55 AM 78.8 °F - 73.4 °F 83% 30.22 in 10.0 mi SW 5.8 mph - N/A   Clear
6:16 AM 78.8 °F - 73.4 °F 83% 30.23 in 10.0 mi SW 5.8 mph - N/A   Clear
6:36 AM 78.8 °F - 73.4 °F 83% 30.23 in 10.0 mi SW 4.6 mph - N/A   Clear
6:55 AM 80.6 °F 86.2 °F 75.2 °F 84% 30.23 in 10.0 mi WSW 4.6 mph - N/A   Clear
7:16 AM 80.6 °F 86.2 °F 75.2 °F 84% 30.23 in 10.0 mi WSW 8.1 mph - N/A   Clear
7:35 AM 82.4 °F 89.5 °F 75.2 °F 79% 30.23 in 10.0 mi WSW 8.1 mph - N/A   Clear
7:55 AM 82.4 °F 89.5 °F 75.2 °F 79% 30.23 in 10.0 mi WSW 10.4 mph - N/A   Clear
8:15 AM 82.4 °F 88.2 °F 73.4 °F 74% 30.24 in 10.0 mi West 11.5 mph 16.1 mph N/A   Clear
8:35 AM 84.2 °F 92.3 °F 75.2 °F 74% 30.23 in 10.0 mi West 8.1 mph - N/A   Clear
8:55 AM 84.2 °F 92.3 °F 75.2 °F 74% 30.24 in 10.0 mi West 8.1 mph - N/A   Clear
9:15 AM 84.2 °F 92.3 °F 75.2 °F 74% 30.23 in 10.0 mi WSW 8.1 mph - N/A   Clear
9:35 AM 86.0 °F 95.1 °F 75.2 °F 70% 30.23 in 10.0 mi West 9.2 mph - N/A   Clear
9:55 AM 87.8 °F 97.6 °F 75.2 °F 66% 30.23 in 10.0 mi West 6.9 mph - N/A   Clear
10:15 AM 87.8 °F 95.6 °F 73.4 °F 62% 30.23 in 10.0 mi West 9.2 mph - N/A   Clear
10:35 AM 87.8 °F 97.6 °F 75.2 °F 66% 30.23 in 10.0 mi WSW 8.1 mph - N/A   Clear
10:55 AM 87.8 °F 97.6 °F 75.2 °F 66% 30.23 in 10.0 mi SW 9.2 mph - N/A   Clear
11:16 AM 87.8 °F 95.6 °F 73.4 °F 62% 30.22 in 10.0 mi WSW 8.1 mph - N/A   Clear
11:35 AM 89.6 °F 98.2 °F 73.4 °F 59% 30.23 in 10.0 mi SW 6.9 mph - N/A   Clear
11:55 AM 89.6 °F 99.8 °F 75.2 °F 62% 30.22 in 10.0 mi SW 5.8 mph - N/A   Clear
12:15 PM 91.4 °F 100.1 °F 73.4 °F 55% 30.21 in 10.0 mi WSW 5.8 mph - N/A   Clear
12:36 PM 91.4 °F 100.1 °F 73.4 °F 55% 30.21 in 10.0 mi SW 9.2 mph - N/A   Clear
12:55 PM 91.4 °F 100.1 °F 73.4 °F 55% 30.21 in 10.0 mi WSW 10.4 mph - N/A   Clear
1:15 PM 91.4 °F 100.1 °F 73.4 °F 55% 30.20 in 10.0 mi WSW 9.2 mph - N/A   Scattered Clouds
1:37 PM 91.4 °F 100.1 °F 73.4 °F 55% 30.19 in 10.0 mi WSW 6.9 mph - N/A   Scattered Clouds
1:55 PM 91.4 °F 98.4 °F 71.6 °F 52% 30.19 in 10.0 mi West 9.2 mph - N/A   Scattered Clouds
2:15 PM 91.4 °F 98.4 °F 71.6 °F 52% 30.19 in 10.0 mi WSW 11.5 mph - N/A   Clear
2:35 PM 91.4 °F 98.4 °F 71.6 °F 52% 30.18 in 10.0 mi SW 11.5 mph - N/A   Clear
2:55 PM 91.4 °F 98.4 °F 71.6 °F 52% 30.18 in 10.0 mi SW 6.9 mph 16.1 mph N/A   Scattered Clouds
3:15 PM 91.4 °F 98.4 °F 71.6 °F 52% 30.17 in 10.0 mi SW 12.7 mph 17.3 mph N/A   Clear
3:35 PM 91.4 °F 96.8 °F 69.8 °F 49% 30.17 in 10.0 mi WSW 12.7 mph 18.4 mph N/A   Scattered Clouds
3:56 PM 91.4 °F 98.4 °F 71.6 °F 52% 30.16 in 10.0 mi SW 11.5 mph - N/A   Clear
4:16 PM 91.4 °F 96.8 °F 69.8 °F 49% 30.15 in 10.0 mi SSW 11.5 mph 16.1 mph N/A   Clear
4:37 PM 91.4 °F 95.4 °F 68.0 °F 46% 30.15 in 10.0 mi SW 9.2 mph - N/A   Clear
4:55 PM 93.2 °F 96.2 °F 66.2 °F 41% 30.14 in 10.0 mi SW 11.5 mph - N/A   Clear
5:17 PM 91.4 °F 94.0 °F 66.2 °F 43% 30.14 in 10.0 mi WSW 10.4 mph 16.1 mph N/A   Clear
5:35 PM 91.4 °F 93.2 °F 64.4 °F 41% 30.14 in 10.0 mi WSW 9.2 mph 17.3 mph N/A   Clear
5:55 PM 91.4 °F 94.0 °F 66.2 °F 43% 30.14 in 10.0 mi SW 11.5 mph 16.1 mph N/A   Clear
6:15 PM 91.4 °F 94.0 °F 66.2 °F 43% 30.13 in 10.0 mi WSW 10.4 mph - N/A   Clear
6:35 PM 91.4 °F 94.0 °F 66.2 °F 43% 30.14 in 10.0 mi SW 8.1 mph - N/A   Clear
6:56 PM 89.6 °F 91.1 °F 64.4 °F 43% 30.13 in 10.0 mi SSW 8.1 mph - N/A   Clear
7:15 PM 89.6 °F 92.2 °F 66.2 °F 46% 30.13 in 10.0 mi SSE 5.8 mph - N/A   Clear
7:35 PM 84.2 °F 90.9 °F 73.4 °F 70% 30.13 in 10.0 mi SSE 5.8 mph - N/A   Clear
7:55 PM 84.2 °F 90.9 °F 73.4 °F 70% 30.13 in 10.0 mi South 5.8 mph - N/A   Clear
8:16 PM 82.4 °F 88.2 °F 73.4 °F 74% 30.13 in 10.0 mi South 6.9 mph - N/A   Clear
8:35 PM 82.4 °F 88.2 °F 73.4 °F 74% 30.14 in 10.0 mi South 5.8 mph - N/A   Clear
8:57 PM 80.6 °F 85.4 °F 73.4 °F 79% 30.14 in 10.0 mi South 5.8 mph - N/A   Clear
9:15 PM 80.6 °F 85.4 °F 73.4 °F 79% 30.14 in 10.0 mi South 5.8 mph - N/A   Clear
9:35 PM 80.6 °F 86.2 °F 75.2 °F 84% 30.15 in 10.0 mi South 5.8 mph - N/A   Clear
9:55 PM 80.6 °F 86.2 °F 75.2 °F 84% 30.15 in 10.0 mi South 5.8 mph - N/A   Clear
10:15 PM 80.6 °F 86.2 °F 75.2 °F 84% 30.16 in 10.0 mi South 4.6 mph - N/A   Clear
10:35 PM 80.6 °F 85.4 °F 73.4 °F 79% 30.16 in 10.0 mi Calm Calm - N/A   Clear
10:55 PM 78.8 °F - 75.2 °F 89% 30.16 in 10.0 mi Calm Calm - N/A   Clear
11:15 PM 78.8 °F - 75.2 °F 89% 30.17 in 7.0 mi SSW 3.5 mph - N/A   Clear
11:36 PM 78.8 °F - 75.2 °F 89% 30.17 in 7.0 mi SSW 4.6 mph - N/A   Clear
11:55 PM 78.8 °F - 73.4 °F 83% 30.16 in 5.0 mi SSW 4.6 mph - N/A   Clear